Time;durP1;ratioP1;P1;durP2;ratioP2;P2;SDS_P1;SDS_P2;PMS_P1;PMS_P2;Temp;Humidity;BMP_temperature;BMP_pressure;BME280_temperature;BME280_humidity;BME280_pressure;Samples;Min_cycle;Max_cycle;Signal;HPM_P1;HPM_P2
2021/01/30 00:00:49;;;;;;;;;;;;;;;8.41;75.03;98462.84;3090631;28;19926;-79
2021/01/30 00:02:20;;;;;;;;;;;;;;;8.42;75.04;98464.50;3092777;28;20365;-79
2021/01/30 00:03:51;;;;;;;;;;;;;;;8.38;74.71;98453.38;3091279;28;19926;-80
2021/01/30 00:05:23;;;;;;;;;;;;;;;8.37;74.75;98461.53;3091897;28;19954;-81
2021/01/30 00:06:54;;;;;;;;;;;;;;;8.28;75.15;98464.22;3091003;28;19934;-80
2021/01/30 00:08:25;;;;;;;;;;;;;;;8.31;74.76;98467.56;3091702;28;19980;-80
2021/01/30 00:09:56;;;;;;;;;;;;;;;8.36;75.11;98471.34;3086342;28;19973;-81
2021/01/30 00:11:27;;;;;;;;;;;;;;;8.34;75.75;98464.53;3090396;28;19930;-81
2021/01/30 00:12:59;;;;;;;;;;;;;;;8.25;75.72;98469.06;3089031;28;20254;-80
2021/01/30 00:14:31;;;;;;;;;;;;;;;8.31;75.71;98467.56;3087050;28;19940;-80
2021/01/30 00:16:05;;;;;;;;;;;;;;;8.34;75.32;98473.38;3091420;28;19934;-80
2021/01/30 00:17:36;;;;;;;;;;;;;;;8.37;75.39;98475.66;3088706;28;20309;-80
2021/01/30 00:19:25;;;;;;;;;;;;;;;8.36;75.59;98473.19;3083867;28;19926;-81
2021/01/30 00:20:57;;;;;;;;;;;;;;;8.33;76.27;98470.84;3088498;28;20041;-80
2021/01/30 00:22:28;;;;;;;;;;;;;;;8.27;76.05;98462.56;3084813;28;19949;-81
2021/01/30 00:23:59;;;;;;;;;;;;;;;8.27;76.53;98472.34;3090138;28;19930;-80
2021/01/30 00:25:33;;;;;;;;;;;;;;;8.19;76.27;98469.72;3088846;28;20259;-80
2021/01/30 00:27:05;;;;;;;;;;;;;;;8.17;76.11;98466.41;3086714;28;19937;-81
2021/01/30 00:28:36;;;;;;;;;;;;;;;8.15;75.95;98471.88;3094567;28;20502;-81
2021/01/30 00:30:12;;;;;;;;;;;;;;;8.17;75.83;98472.53;3091405;28;19934;-81
2021/01/30 00:31:45;;;;;;;;;;;;;;;8.10;76.50;98477.69;3090782;28;19933;-80
2021/01/30 00:33:16;;;;;;;;;;;;;;;8.18;76.15;98473.38;3088971;28;19926;-79
2021/01/30 00:34:48;;;;;;;;;;;;;;;8.18;76.01;98468.03;3093330;28;19953;-79
2021/01/30 00:36:20;;;;;;;;;;;;;;;8.16;76.32;98476.19;3089772;28;19969;-81
2021/01/30 00:37:50;;;;;;;;;;;;;;;8.18;75.92;98460.06;3094635;28;20412;-79
2021/01/30 00:39:22;;;;;;;;;;;;;;;8.06;76.30;98476.41;3090972;28;19989;-79
2021/01/30 00:40:53;;;;;;;;;;;;;;;8.12;75.63;98469.56;3093580;28;19926;-81
2021/01/30 00:42:25;;;;;;;;;;;;;;;8.16;75.60;98468.22;3091738;28;19936;-81
2021/01/30 00:43:57;;;;;;;;;;;;;;;8.04;75.86;98467.75;3094052;28;19925;-79
2021/01/30 00:45:29;;;;;;;;;;;;;;;8.15;75.74;98471.88;3094620;28;19926;-80
2021/01/30 00:47:00;;;;;;;;;;;;;;;8.13;75.44;98476.53;3092047;28;20006;-81
2021/01/30 00:48:32;;;;;;;;;;;;;;;8.07;75.67;98477.22;3092760;28;19928;-80
2021/01/30 00:50:05;;;;;;;;;;;;;;;8.05;76.22;98468.56;3096541;28;20489;-79
2021/01/30 00:51:36;;;;;;;;;;;;;;;8.09;75.56;98469.91;3069974;28;19926;-78
2021/01/30 00:53:08;;;;;;;;;;;;;;;8.05;75.43;98457.91;3095618;28;19988;-78
2021/01/30 00:54:40;;;;;;;;;;;;;;;8.05;75.58;98468.56;3097084;28;23497;-81
2021/01/30 00:56:11;;;;;;;;;;;;;;;8.01;75.70;98468.06;3093438;28;19927;-79
2021/01/30 00:57:42;;;;;;;;;;;;;;;8.02;75.53;98471.56;3095437;28;19989;-81
2021/01/30 00:59:14;;;;;;;;;;;;;;;8.07;75.60;98466.56;3096010;28;19958;-80
2021/01/30 01:00:45;;;;;;;;;;;;;;;8.08;75.52;98469.03;3092229;28;19949;-79
2021/01/30 01:02:18;;;;;;;;;;;;;;;8.09;75.32;98469.91;3100668;28;19926;-79
2021/01/30 01:03:49;;;;;;;;;;;;;;;8.07;75.39;98464.75;3089212;28;20001;-79
2021/01/30 01:05:20;;;;;;;;;;;;;;;8.12;74.92;98478.38;3095228;28;19934;-80
2021/01/30 01:06:51;;;;;;;;;;;;;;;8.12;75.13;98480.22;3091525;28;20310;-79
2021/01/30 01:08:23;;;;;;;;;;;;;;;8.15;74.64;98474.53;3093091;28;19930;-79
2021/01/30 01:09:54;;;;;;;;;;;;;;;8.08;74.87;98479.69;3093309;28;19941;-80
2021/01/30 01:11:25;;;;;;;;;;;;;;;8.08;74.90;98481.53;3099740;28;19930;-80
2021/01/30 01:12:56;;;;;;;;;;;;;;;8.13;74.42;98492.50;3088744;28;19945;-81
2021/01/30 01:14:27;;;;;;;;;;;;;;;8.17;74.14;98485.84;3091886;28;19934;-79
2021/01/30 01:15:58;;;;;;;;;;;;;;;8.17;73.86;98496.50;3092739;28;20428;-79
2021/01/30 01:17:31;;;;;;;;;;;;;;;8.10;73.83;98492.84;3094299;28;19988;-80
2021/01/30 01:19:22;;;;;;;;;;;;;;;8.17;74.05;98499.16;3092537;28;19953;-79
2021/01/30 01:20:57;;;;;;;;;;;;;;;8.27;73.55;98494.50;3093440;28;19934;-80
2021/01/30 01:22:28;;;;;;;;;;;;;;;8.23;73.54;98495.00;3090495;28;19945;-80
2021/01/30 01:23:59;;;;;;;;;;;;;;;8.32;73.59;98506.47;3094062;28;19934;-80
2021/01/30 01:25:31;;;;;;;;;;;;;;;8.28;73.63;98514.81;3091317;28;19930;-80
2021/01/30 01:27:02;;;;;;;;;;;;;;;8.18;74.24;98506.16;3096869;28;19926;-80
2021/01/30 01:28:33;;;;;;;;;;;;;;;8.22;73.84;98504.00;3095700;28;19933;-79
2021/01/30 01:30:04;;;;;;;;;;;;;;;8.15;74.15;98517.13;3092724;28;19969;-81
2021/01/30 01:31:36;;;;;;;;;;;;;;;8.09;73.97;98509.81;3098503;28;19937;-81
2021/01/30 01:33:14;;;;;;;;;;;;;;;8.11;74.18;98510.50;3092464;28;19926;-80
2021/01/30 01:34:45;;;;;;;;;;;;;;;8.03;74.59;98510.50;3098643;28;19945;-80
2021/01/30 01:36:20;;;;;;;;;;;;;;;8.11;74.47;98518.47;3096026;28;19926;-79
2021/01/30 01:37:52;;;;;;;;;;;;;;;8.07;74.50;98506.47;3096743;28;19926;-81
2021/01/30 01:39:24;;;;;;;;;;;;;;;8.14;74.36;98510.13;3097404;28;19933;-80
2021/01/30 01:40:55;;;;;;;;;;;;;;;8.10;74.44;98511.50;3096591;28;19945;-80
2021/01/30 01:42:27;;;;;;;;;;;;;;;8.12;74.42;98506.84;3092522;28;19926;-79
2021/01/30 01:43:58;;;;;;;;;;;;;;;8.09;75.06;98509.81;3100577;28;19927;-81
2021/01/30 01:45:29;;;;;;;;;;;;;;;8.08;74.72;98506.31;3093163;28;19945;-80
2021/01/30 01:47:09;;;;;;;;;;;;;;;8.06;74.79;98505.66;3095778;28;19968;-81
2021/01/30 01:48:42;;;;;;;;;;;;;;;8.06;74.74;98499.50;3096444;28;20337;-79
2021/01/30 01:50:31;;;;;;;;;;;;;;;8.07;74.67;98495.84;3094553;28;20055;-80
2021/01/30 01:52:08;;;;;;;;;;;;;;;8.06;74.58;98496.84;3095863;28;19926;-81
2021/01/30 01:53:40;;;;;;;;;;;;;;;8.14;74.68;98488.84;3097815;28;19914;-79
2021/01/30 01:55:17;;;;;;;;;;;;;;;8.18;73.99;98484.88;3090982;28;19952;-79
2021/01/30 01:56:50;;;;;;;;;;;;;;;8.12;73.98;98494.34;3101020;28;20034;-79
2021/01/30 01:58:31;;;;;;;;;;;;;;;8.11;73.92;98489.19;3092547;28;20294;-78
2021/01/30 02:00:07;;;;;;;;;;;;;;;8.05;74.13;98481.84;3095657;28;19925;-79
2021/01/30 02:01:39;;;;;;;;;;;;;;;8.01;74.35;98485.88;3095177;28;20408;-80
2021/01/30 02:03:11;;;;;;;;;;;;;;;8.04;74.21;98480.19;3091710;28;19930;-80
2021/01/30 02:04:47;;;;;;;;;;;;;;;7.97;74.53;98478.22;3100311;28;19932;-79
2021/01/30 02:06:19;;;;;;;;;;;;;;;8.03;74.21;98478.56;3095568;28;19930;-79
2021/01/30 02:07:52;;;;;;;;;;;;;;;8.02;73.69;98480.38;3100107;28;19944;-79
2021/01/30 02:09:24;;;;;;;;;;;;;;;7.99;73.87;98483.34;3085087;28;20002;-80
2021/01/30 02:10:55;;;;;;;;;;;;;;;8.00;73.27;98477.03;3096227;28;19922;-80
2021/01/30 02:12:26;;;;;;;;;;;;;;;7.96;73.25;98471.22;3106752;28;19914;-80
2021/01/30 02:13:58;;;;;;;;;;;;;;;7.93;73.58;98476.03;3097242;28;19938;-79
2021/01/30 02:15:34;;;;;;;;;;;;;;;8.01;73.32;98468.06;3097854;28;19949;-80
2021/01/30 02:17:11;;;;;;;;;;;;;;;7.97;72.99;98472.06;3100141;28;19930;-78
2021/01/30 02:19:09;;;;;;;;;;;;;;;7.97;72.81;98470.22;3095729;28;19921;-79
2021/01/30 02:21:11;;;;;;;;;;;;;;;7.96;73.02;98468.56;3098657;28;19985;-79
2021/01/30 02:23:03;;;;;;;;;;;;;;;8.00;73.06;98454.94;3095580;28;19925;-79
2021/01/30 02:24:57;;;;;;;;;;;;;;;7.96;73.06;98455.25;3097142;28;19941;-79
2021/01/30 02:26:45;;;;;;;;;;;;;;;7.96;73.33;98460.56;3102567;28;19945;-79
2021/01/30 02:28:26;;;;;;;;;;;;;;;7.88;73.39;98446.47;3097111;28;19914;-79
2021/01/30 02:30:05;;;;;;;;;;;;;;;7.93;73.29;98444.97;3099439;28;19925;-80
2021/01/30 02:31:54;;;;;;;;;;;;;;;7.96;73.26;98449.13;3092861;28;19997;-79
2021/01/30 02:33:33;;;;;;;;;;;;;;;7.99;73.25;98448.75;3089670;28;19926;-80
2021/01/30 02:35:15;;;;;;;;;;;;;;;7.97;73.10;98446.28;3098551;28;19930;-79
2021/01/30 02:36:49;;;;;;;;;;;;;;;7.90;74.00;98455.09;3097921;28;19929;-79
2021/01/30 02:38:22;;;;;;;;;;;;;;;8.05;73.37;98455.25;3098912;28;19930;-78
2021/01/30 02:39:56;;;;;;;;;;;;;;;8.07;73.11;98450.59;3094465;28;19954;-78
2021/01/30 02:41:32;;;;;;;;;;;;;;;8.10;72.93;98450.28;3103913;28;19956;-79
2021/01/30 02:43:07;;;;;;;;;;;;;;;8.09;73.14;98453.94;3099372;28;20050;-79
2021/01/30 02:44:48;;;;;;;;;;;;;;;8.08;72.62;98447.75;3099527;28;19926;-80
2021/01/30 02:46:20;;;;;;;;;;;;;;;8.04;72.78;98442.94;3094817;28;19914;-79
2021/01/30 02:47:56;;;;;;;;;;;;;;;8.00;73.27;98444.28;3097722;28;19936;-78
2021/01/30 02:49:31;;;;;;;;;;;;;;;7.94;73.51;98446.59;3099456;28;19990;-80
2021/01/30 02:51:03;;;;;;;;;;;;;;;7.95;73.68;98442.94;3096988;28;19949;-79
2021/01/30 02:52:41;;;;;;;;;;;;;;;7.97;73.49;98437.47;3098020;28;19930;-78
2021/01/30 02:54:12;;;;;;;;;;;;;;;7.93;73.71;98439.66;3095150;28;19978;-79
2021/01/30 02:55:44;;;;;;;;;;;;;;;7.90;73.74;98453.28;3100476;28;19952;-79
2021/01/30 02:57:17;;;;;;;;;;;;;;;7.93;73.68;98450.28;3098437;28;19920;-78
2021/01/30 02:58:51;;;;;;;;;;;;;;;7.96;73.72;98438.47;3097669;28;19929;-78
2021/01/30 03:00:23;;;;;;;;;;;;;;;7.94;73.60;98456.44;3096223;28;19925;-79
2021/01/30 03:01:54;;;;;;;;;;;;;;;7.92;73.77;98445.97;3098502;28;19920;-78
2021/01/30 03:03:25;;;;;;;;;;;;;;;7.96;73.49;98444.63;3100188;28;20313;-79
2021/01/30 03:04:58;;;;;;;;;;;;;;;7.95;73.30;98442.94;3098862;28;19934;-78
2021/01/30 03:06:31;;;;;;;;;;;;;;;7.93;73.44;98436.97;3100665;28;20183;-79
2021/01/30 03:08:11;;;;;;;;;;;;;;;7.96;73.12;98441.94;3103140;28;19914;-79
2021/01/30 03:09:48;;;;;;;;;;;;;;;7.99;73.00;98432.78;3098308;28;19933;-79
2021/01/30 03:11:22;;;;;;;;;;;;;;;8.00;72.95;98444.28;3104318;28;19914;-79
2021/01/30 03:12:59;;;;;;;;;;;;;;;7.96;73.28;98436.63;3095722;28;19930;-79
2021/01/30 03:14:30;;;;;;;;;;;;;;;7.99;72.99;98432.78;3100084;28;19913;-79
2021/01/30 03:16:03;;;;;;;;;;;;;;;7.98;73.25;98439.13;3098091;28;19921;-79
2021/01/30 03:17:34;;;;;;;;;;;;;;;8.01;73.04;98425.47;3099085;28;19938;-79
2021/01/30 03:19:24;;;;;;;;;;;;;;;8.01;73.16;98437.97;3099150;28;19914;-78
2021/01/30 03:20:57;;;;;;;;;;;;;;;7.94;73.44;98440.47;3098448;28;19929;-79
2021/01/30 03:22:30;;;;;;;;;;;;;;;7.99;73.30;98431.97;3099198;28;19930;-79
2021/01/30 03:24:03;;;;;;;;;;;;;;;8.02;73.06;98434.31;3099789;28;19941;-79
2021/01/30 03:25:34;;;;;;;;;;;;;;;8.01;72.99;98441.44;3097515;28;19921;-79
2021/01/30 03:27:05;;;;;;;;;;;;;;;7.96;73.25;98441.94;3097402;28;19918;-79
2021/01/30 03:28:37;;;;;;;;;;;;;;;8.03;73.00;98434.13;3097850;28;19936;-79
2021/01/30 03:30:09;;;;;;;;;;;;;;;7.95;73.25;98448.25;3097900;28;19926;-80
2021/01/30 03:31:39;;;;;;;;;;;;;;;8.01;72.80;98440.63;3096037;28;19936;-80
2021/01/30 03:33:11;;;;;;;;;;;;;;;7.93;73.12;98438.78;3097893;28;20146;-79
2021/01/30 03:34:41;;;;;;;;;;;;;;;7.91;73.08;98444.28;3095507;28;19929;-80
2021/01/30 03:36:13;;;;;;;;;;;;;;;7.90;73.73;98442.63;3095715;28;19960;-79
2021/01/30 03:37:44;;;;;;;;;;;;;;;7.95;72.95;98448.25;3098248;28;19926;-80
2021/01/30 03:39:17;;;;;;;;;;;;;;;7.99;72.72;98435.44;3095676;28;19921;-80
2021/01/30 03:40:48;;;;;;;;;;;;;;;8.02;72.54;98443.13;3100593;28;19926;-79
2021/01/30 03:42:18;;;;;;;;;;;;;;;8.00;72.63;98441.63;3094666;28;19937;-79
2021/01/30 03:43:50;;;;;;;;;;;;;;;8.01;72.80;98445.94;3099301;28;19937;-79
2021/01/30 03:45:23;;;;;;;;;;;;;;;8.03;72.51;98439.47;3094178;28;20215;-79
2021/01/30 03:46:54;;;;;;;;;;;;;;;8.04;72.29;98440.28;3100080;28;19914;-79
2021/01/30 03:48:25;;;;;;;;;;;;;;;8.05;72.69;98433.97;3095760;28;19926;-79
2021/01/30 03:49:56;;;;;;;;;;;;;;;8.01;72.54;98437.97;3093860;28;19981;-79
2021/01/30 03:51:27;;;;;;;;;;;;;;;7.99;72.53;98438.13;3095303;28;19937;-79
2021/01/30 03:52:58;;;;;;;;;;;;;;;8.01;72.51;98436.13;3097082;28;19926;-79
2021/01/30 03:54:31;;;;;;;;;;;;;;;7.95;72.40;98432.31;3094964;28;19926;-79
2021/01/30 03:56:02;;;;;;;;;;;;;;;7.96;72.46;98428.66;3097222;28;20070;-79
2021/01/30 03:57:32;;;;;;;;;;;;;;;7.96;72.08;98428.66;3095925;28;19925;-79
2021/01/30 03:59:03;;;;;;;;;;;;;;;7.96;72.19;98438.47;3099045;28;19914;-78
2021/01/30 04:00:35;;;;;;;;;;;;;;;7.97;72.13;98432.16;3094706;28;19941;-80
2021/01/30 04:02:06;;;;;;;;;;;;;;;7.94;72.25;98435.13;3099693;28;19913;-80
2021/01/30 04:03:37;;;;;;;;;;;;;;;7.96;72.08;98433.97;3094420;28;19922;-79
2021/01/30 04:05:09;;;;;;;;;;;;;;;7.91;72.48;98430.16;3099611;28;19921;-79
2021/01/30 04:06:40;;;;;;;;;;;;;;;7.88;72.10;98430.50;3096645;28;19914;-79
2021/01/30 04:08:11;;;;;;;;;;;;;;;7.92;72.30;98427.34;3096564;28;19934;-79
2021/01/30 04:09:42;;;;;;;;;;;;;;;7.95;71.90;98424.31;3097715;28;19926;-79
2021/01/30 04:11:13;;;;;;;;;;;;;;;7.96;71.88;98423.31;3100634;28;19965;-79
2021/01/30 04:12:45;;;;;;;;;;;;;;;8.02;71.80;98421.00;3096358;28;19930;-80
2021/01/30 04:14:15;;;;;;;;;;;;;;;7.99;72.04;98416.81;3091989;28;19924;-79
2021/01/30 04:15:47;;;;;;;;;;;;;;;7.94;72.27;98412.00;3093502;28;20436;-79
2021/01/30 04:17:18;;;;;;;;;;;;;;;7.96;72.30;98423.31;3098924;28;19914;-80
2021/01/30 04:19:01;;;;;;;;;;;;;;;7.89;72.89;98422.34;3092609;28;19917;-79
2021/01/30 04:20:40;;;;;;;;;;;;;;;7.85;73.75;98425.50;3099985;28;19921;-79
2021/01/30 04:22:11;;;;;;;;;;;;;;;7.81;74.10;98425.00;3094005;28;19926;-79
2021/01/30 04:23:44;;;;;;;;;;;;;;;7.73;75.27;98425.81;3097145;28;20042;-79
2021/01/30 04:25:18;;;;;;;;;;;;;;;7.69;75.81;98421.84;3091871;28;19945;-79
2021/01/30 04:26:49;;;;;;;;;;;;;;;7.65;75.89;98423.16;3098501;28;19937;-79
2021/01/30 04:28:23;;;;;;;;;;;;;;;7.63;76.39;98428.66;3095702;28;19926;-79
2021/01/30 04:29:54;;;;;;;;;;;;;;;7.53;77.24;98422.66;3095934;28;19926;-81
2021/01/30 04:31:27;;;;;;;;;;;;;;;7.50;77.46;98420.34;3096188;28;19929;-79
2021/01/30 04:33:00;;;;;;;;;;;;;;;7.46;77.99;98416.34;3091240;28;19926;-80
2021/01/30 04:34:30;;;;;;;;;;;;;;;7.41;78.34;98413.34;3086886;28;19934;-79
2021/01/30 04:36:05;;;;;;;;;;;;;;;7.38;78.83;98414.50;3089682;28;20308;-81
2021/01/30 04:37:38;;;;;;;;;;;;;;;7.39;78.61;98420.66;3083476;28;19958;-80
2021/01/30 04:39:11;;;;;;;;;;;;;;;7.34;78.98;98411.34;3086847;28;19933;-80
2021/01/30 04:42:39;;;;;;;;;;;;;;;7.28;79.19;98411.97;3085680;28;20282;-80
2021/01/30 04:44:12;;;;;;;;;;;;;;;7.26;79.31;98424.63;3081754;28;20496;-79
2021/01/30 04:46:00;;;;;;;;;;;;;;;7.23;79.57;98414.31;3088525;28;19949;-80
2021/01/30 04:47:38;;;;;;;;;;;;;;;7.23;79.66;98411.66;3089536;28;19930;-80
2021/01/30 04:49:25;;;;;;;;;;;;;;;7.20;79.70;98400.53;3075793;28;19926;-80
2021/01/30 04:51:02;;;;;;;;;;;;;;;7.17;80.15;98407.81;3092166;28;19934;-81
2021/01/30 04:52:42;;;;;;;;;;;;;;;7.16;80.73;98405.34;3096002;28;20008;-79
2021/01/30 04:54:20;;;;;;;;;;;;;;;7.13;80.62;98401.16;3087278;28;19992;-79
2021/01/30 04:56:09;;;;;;;;;;;;;;;7.15;80.71;98403.66;3089874;28;19937;-80
2021/01/30 04:57:49;;;;;;;;;;;;;;;7.16;80.79;98394.72;3085962;28;19936;-80
2021/01/30 04:59:29;;;;;;;;;;;;;;;7.15;80.84;98398.34;3088191;28;19926;-79
2021/01/30 05:01:23;;;;;;;;;;;;;;;7.14;80.75;98388.72;3076313;28;19926;-79
2021/01/30 05:05:29;;;;;;;;;;;;;;;7.16;81.31;98384.06;3086111;28;19933;-79
2021/01/30 05:07:25;;;;;;;;;;;;;;;7.15;81.37;98382.41;3079572;28;19980;-80
2021/01/30 05:09:33;;;;;;;;;;;;;;;7.13;81.03;98389.72;3095245;28;19930;-79
2021/01/30 05:11:29;;;;;;;;;;;;;;;7.11;81.03;98381.06;3077843;28;19927;-80
2021/01/30 05:13:08;;;;;;;;;;;;;;;7.10;81.12;98374.94;3087211;28;19940;-79
2021/01/30 05:14:44;;;;;;;;;;;;;;;7.11;80.77;98384.56;3091625;28;20420;-79
2021/01/30 05:16:20;;;;;;;;;;;;;;;7.11;80.50;98383.72;3087763;28;19951;-79
2021/01/30 05:17:58;;;;;;;;;;;;;;;7.14;80.09;98372.78;3091108;28;19961;-80
2021/01/30 05:19:52;;;;;;;;;;;;;;;7.18;80.08;98379.41;3088398;28;19933;-79
2021/01/30 05:21:43;;;;;;;;;;;;;;;7.20;79.69;98372.09;3087582;28;19938;-80
2021/01/30 05:23:14;;;;;;;;;;;;;;;7.23;79.16;98374.44;3083778;28;19927;-79
2021/01/30 05:24:52;;;;;;;;;;;;;;;7.23;79.13;98370.94;3088232;28;20005;-79
2021/01/30 05:26:27;;;;;;;;;;;;;;;7.26;78.66;98366.16;3089348;28;19925;-79
2021/01/30 05:28:14;;;;;;;;;;;;;;;7.27;78.17;98365.16;3088333;28;19968;-81
2021/01/30 05:29:48;;;;;;;;;;;;;;;7.34;77.38;98362.66;3091510;28;20025;-79
2021/01/30 05:31:27;;;;;;;;;;;;;;;7.40;77.28;98366.47;3085190;28;19926;-80
2021/01/30 05:33:01;;;;;;;;;;;;;;;7.39;77.15;98360.34;3090361;28;20396;-80
2021/01/30 05:34:35;;;;;;;;;;;;;;;7.42;76.66;98354.69;3089425;28;19926;-79
2021/01/30 05:36:26;;;;;;;;;;;;;;;7.45;76.42;98362.31;3089781;28;19926;-79
2021/01/30 05:38:15;;;;;;;;;;;;;;;7.49;76.10;98361.00;3094907;28;19950;-79
2021/01/30 05:40:11;;;;;;;;;;;;;;;7.50;75.78;98356.50;3095904;28;19927;-80
2021/01/30 05:42:03;;;;;;;;;;;;;;;7.51;75.26;98362.69;3103795;28;19926;-80
2021/01/30 05:43:47;;;;;;;;;;;;;;;7.49;74.96;98363.69;3095620;28;19926;-80
2021/01/30 05:45:33;;;;;;;;;;;;;;;7.55;74.95;98362.19;3093351;28;19926;-79
2021/01/30 05:47:04;;;;;;;;;;;;;;;7.61;74.11;98356.19;3096609;28;19927;-80
2021/01/30 05:48:37;;;;;;;;;;;;;;;7.69;73.83;98357.16;3093015;28;19981;-80
2021/01/30 05:50:36;;;;;;;;;;;;;;;7.68;74.00;98355.50;3090654;28;20071;-79
2021/01/30 05:52:35;;;;;;;;;;;;;;;7.70;73.31;98348.19;3089028;28;20032;-80
2021/01/30 05:54:36;;;;;;;;;;;;;;;7.76;73.25;98353.69;3087382;28;19926;-80
2021/01/30 05:56:36;;;;;;;;;;;;;;;7.72;73.00;98356.84;3088482;28;19967;-79
2021/01/30 05:58:12;;;;;;;;;;;;;;;7.73;73.04;98345.22;3087846;28;19954;-80
2021/01/30 05:59:52;;;;;;;;;;;;;;;7.75;72.63;98348.50;3086909;28;19926;-79
2021/01/30 06:01:26;;;;;;;;;;;;;;;7.67;73.13;98340.53;3087440;28;19927;-80
2021/01/30 06:03:01;;;;;;;;;;;;;;;7.70;72.82;98342.88;3085708;28;20432;-80
2021/01/30 06:04:32;;;;;;;;;;;;;;;7.75;72.59;98340.53;3087212;28;19933;-78
2021/01/30 06:06:09;;;;;;;;;;;;;;;7.75;72.48;98340.53;3088198;28;19933;-79
2021/01/30 06:07:40;;;;;;;;;;;;;;;7.80;72.52;98348.84;3088931;28;19948;-80
2021/01/30 06:09:32;;;;;;;;;;;;;;;7.76;72.47;98337.72;3067659;28;19933;-80
2021/01/30 06:11:10;;;;;;;;;;;;;;;7.73;72.26;98345.22;3089135;28;19926;-80
2021/01/30 06:12:47;;;;;;;;;;;;;;;7.79;72.24;98347.19;3083294;28;20309;-80
2021/01/30 06:14:36;;;;;;;;;;;;;;;7.78;72.29;98345.53;3087835;28;19933;-79
2021/01/30 06:16:08;;;;;;;;;;;;;;;7.79;72.42;98344.53;3067451;28;20326;-80
2021/01/30 06:17:46;;;;;;;;;;;;;;;7.83;72.31;98348.53;3085465;28;19934;-79
2021/01/30 06:21:25;;;;;;;;;;;;;;;7.90;71.94;98353.97;3085010;28;19926;-80
2021/01/30 06:23:11;;;;;;;;;;;;;;;7.89;71.90;98353.16;3092464;28;19926;-80
2021/01/30 06:24:49;;;;;;;;;;;;;;;7.85;71.89;98341.19;3069485;28;20361;-79
2021/01/30 06:26:21;;;;;;;;;;;;;;;7.80;71.92;98344.34;3081114;28;19949;-79
2021/01/30 06:28:02;;;;;;;;;;;;;;;7.84;71.75;98350.16;3070787;28;19926;-80
2021/01/30 06:29:36;;;;;;;;;;;;;;;7.85;72.08;98351.00;3090862;28;19960;-80
2021/01/30 06:31:25;;;;;;;;;;;;;;;7.87;71.84;98352.50;3091728;28;19932;-80
2021/01/30 06:33:01;;;;;;;;;;;;;;;7.92;71.77;98347.50;3088301;28;20433;-80
2021/01/30 06:34:34;;;;;;;;;;;;;;;7.88;71.54;98340.84;3087372;28;22213;-80
2021/01/30 06:36:09;;;;;;;;;;;;;;;7.98;71.73;98348.66;3078863;28;19926;-79
2021/01/30 06:37:52;;;;;;;;;;;;;;;8.01;71.30;98336.84;3068392;28;19937;-80
2021/01/30 06:39:32;;;;;;;;;;;;;;;7.94;71.64;98339.34;3084596;28;20016;-80
2021/01/30 06:41:04;;;;;;;;;;;;;;;7.90;71.54;98346.00;3092616;28;19926;-80
2021/01/30 06:42:35;;;;;;;;;;;;;;;7.89;71.74;98342.50;3080560;28;19937;-80
2021/01/30 06:44:18;;;;;;;;;;;;;;;7.94;71.36;98340.16;3091476;28;19926;-80
2021/01/30 06:45:50;;;;;;;;;;;;;;;7.97;71.23;98342.50;3056836;28;19927;-79
2021/01/30 06:47:27;;;;;;;;;;;;;;;7.94;71.13;98344.66;3081541;28;19926;-79
2021/01/30 06:49:13;;;;;;;;;;;;;;;7.91;71.40;98335.19;3070907;28;19926;-80
2021/01/30 06:50:48;;;;;;;;;;;;;;;8.00;71.53;98343.16;3092394;28;19926;-80
2021/01/30 06:52:25;;;;;;;;;;;;;;;8.06;71.12;98338.00;3084298;28;19944;-80
2021/01/30 06:54:15;;;;;;;;;;;;;;;8.06;71.26;98331.81;3090480;28;19978;-80
2021/01/30 06:55:49;;;;;;;;;;;;;;;8.06;71.27;98323.84;3086638;28;19926;-80
2021/01/30 06:57:29;;;;;;;;;;;;;;;8.03;71.01;98327.69;3085919;28;19992;-80
2021/01/30 06:59:01;;;;;;;;;;;;;;;7.99;71.08;98326.34;3081543;28;19997;-79
2021/01/30 07:00:35;;;;;;;;;;;;;;;8.03;71.21;98326.88;3077635;28;19926;-79
2021/01/30 07:02:28;;;;;;;;;;;;;;;8.10;71.10;98333.16;3079249;29;20053;-79
2021/01/30 07:04:09;;;;;;;;;;;;;;;8.01;71.13;98328.84;3077750;28;19926;-79
2021/01/30 07:05:58;;;;;;;;;;;;;;;8.05;70.78;98323.03;3092001;28;19933;-79
2021/01/30 07:07:32;;;;;;;;;;;;;;;8.08;71.07;98324.50;3076104;28;19926;-80
2021/01/30 07:09:15;;;;;;;;;;;;;;;8.15;70.94;98328.13;3094700;28;19926;-80
2021/01/30 07:10:56;;;;;;;;;;;;;;;8.14;70.79;98321.16;3063369;28;19933;-80
2021/01/30 07:12:30;;;;;;;;;;;;;;;8.20;70.75;98322.31;3069494;28;20029;-80
2021/01/30 07:14:05;;;;;;;;;;;;;;;8.24;70.86;98319.13;3079086;28;20552;-78
2021/01/30 07:15:40;;;;;;;;;;;;;;;8.26;70.58;98324.28;3085144;28;19925;-79
2021/01/30 07:17:26;;;;;;;;;;;;;;;;;;;;;
2021/01/30 07:21:22;;;;;;;;;;;;;;;8.13;70.65;98319.50;3094333;28;19926;-79
2021/01/30 07:23:03;;;;;;;;;;;;;;;8.16;70.51;98313.84;3085597;28;19932;-80
2021/01/30 07:24:36;;;;;;;;;;;;;;;8.18;70.37;98309.19;3102544;28;19926;-80
2021/01/30 07:26:11;;;;;;;;;;;;;;;8.08;70.62;98306.69;3093331;28;19948;-81
2021/01/30 07:27:47;;;;;;;;;;;;;;;8.07;70.61;98302.41;3078984;28;19926;-80
2021/01/30 07:29:27;;;;;;;;;;;;;;;8.14;70.31;98307.03;3092605;28;19927;-79
2021/01/30 07:31:08;;;;;;;;;;;;;;;8.13;70.54;98306.19;3074571;28;19926;-80
2021/01/30 07:32:47;;;;;;;;;;;;;;;8.16;70.39;98311.16;3087485;28;19933;-80
2021/01/30 07:34:21;;;;;;;;;;;;;;;8.23;70.23;98306.81;3081269;28;20071;-79
2021/01/30 07:35:57;;;;;;;;;;;;;;;8.06;70.14;98303.41;3083634;28;19927;-79
2021/01/30 07:37:34;;;;;;;;;;;;;;;8.10;69.99;98306.53;3088518;28;19930;-79
2021/01/30 07:39:20;;;;;;;;;;;;;;;8.06;70.19;98308.72;3091219;28;20412;-80
2021/01/30 07:40:55;;;;;;;;;;;;;;;8.11;69.97;98302.88;3084976;28;19926;-81
2021/01/30 07:42:35;;;;;;;;;;;;;;;8.17;69.66;98302.19;3086577;28;20086;-79
2021/01/30 07:44:09;;;;;;;;;;;;;;;8.24;69.76;98302.34;3093396;28;20219;-79
2021/01/30 07:45:52;;;;;;;;;;;;;;;8.24;69.54;98289.84;3093507;28;19926;-78
2021/01/30 07:47:58;;;;;;;;;;;;;;;8.31;69.48;98297.97;3093856;28;19932;-78
2021/01/30 07:49:58;;;;;;;;;;;;;;;8.45;69.25;98299.06;3092265;28;20293;-79
2021/01/30 07:51:39;;;;;;;;;;;;;;;8.48;69.07;98301.44;3092270;28;19933;-78
2021/01/30 07:53:17;;;;;;;;;;;;;;;8.41;69.15;98303.06;3094630;28;19937;-79
2021/01/30 07:55:02;;;;;;;;;;;;;;;8.33;69.37;98305.78;3092918;28;19926;-78
2021/01/30 07:57:09;;;;;;;;;;;;;;;8.44;69.08;98294.75;3094688;28;19995;-80
2021/01/30 08:10:26;;;;;;;;;;;;;;;8.56;68.66;98274.75;3218452;23;19926;-81
2021/01/30 08:13:53;;;;;;;;;;;;;;;8.54;68.60;98282.06;3098896;28;19989;-79
2021/01/30 08:15:43;;;;;;;;;;;;;;;8.60;68.28;98279.72;3105759;28;19926;-78
2021/01/30 08:19:51;;;;;;;;;;;;;;;8.63;68.70;98282.03;3111590;28;19922;-77
2021/01/30 08:21:38;;;;;;;;;;;;;;;8.62;68.45;98278.56;3109023;28;19933;-82
2021/01/30 08:23:13;;;;;;;;;;;;;;;8.67;68.35;98286.84;3112175;28;19934;-80
2021/01/30 08:25:14;;;;;;;;;;;;;;;8.74;68.34;98286.97;3107928;28;19937;-79
2021/01/30 08:26:58;;;;;;;;;;;;;;;8.73;68.11;98277.31;3098894;28;19941;-81
2021/01/30 08:28:34;;;;;;;;;;;;;;;8.75;68.08;98285.97;3103897;28;19925;-82
2021/01/30 08:30:11;;;;;;;;;;;;;;;8.72;68.24;98278.31;3101871;28;19968;-82
2021/01/30 08:31:46;;;;;;;;;;;;;;;8.76;68.01;98278.78;3104966;28;19989;-82
2021/01/30 08:33:24;;;;;;;;;;;;;;;8.79;68.18;98278.44;3099046;28;19926;-82
2021/01/30 08:35:19;;;;;;;;;;;;;;;8.79;68.11;98273.94;3101333;28;19929;-82
2021/01/30 08:36:52;;;;;;;;;;;;;;;8.82;67.98;98270.91;3096657;28;20493;-82
2021/01/30 08:38:36;;;;;;;;;;;;;;;8.87;67.92;98275.72;3098218;28;20286;-81
2021/01/30 08:40:19;;;;;;;;;;;;;;;8.84;67.62;98282.25;3095048;28;19949;-78
2021/01/30 08:41:59;;;;;;;;;;;;;;;8.85;67.87;98275.06;3092030;28;20016;-79
2021/01/30 08:43:35;;;;;;;;;;;;;;;8.83;67.78;98269.91;3096736;28;20029;-78
2021/01/30 08:45:07;;;;;;;;;;;;;;;8.81;67.49;98279.91;3095737;28;20344;-79
2021/01/30 08:46:38;;;;;;;;;;;;;;;8.82;67.85;98284.25;3092082;28;19930;-79
2021/01/30 08:48:25;;;;;;;;;;;;;;;8.87;67.68;98276.56;3090547;28;19926;-78
2021/01/30 08:50:03;;;;;;;;;;;;;;;8.87;67.43;98276.56;3081419;28;20677;-79
2021/01/30 08:51:34;;;;;;;;;;;;;;;8.83;67.66;98269.91;3101876;28;20027;-79
2021/01/30 08:53:12;;;;;;;;;;;;;;;8.84;67.92;98273.41;3096436;28;19961;-79
2021/01/30 08:54:51;;;;;;;;;;;;;;;8.86;67.52;98272.25;3096609;28;19983;-81
2021/01/30 08:58:51;;;;;;;;;;;;;;;8.97;67.21;98259.50;3096686;28;19969;-81